Terminal Aerodrome Forecast
Issued by NWS Wilmington, OH

Current Version | Previous Version | Text Only | Print | Product List | Glossary Off
Versions: 1 2 3 4 5 6 7 8 9 10 11 12 13 14 15 16 17 18 19 20

016
FTUS41 KILN 261805 AAA
TAFCMH
TAF AMD
KCMH 261805Z 2618/2718 25005KT P6SM -RA SCT008 BKN018 OVC022
     FM261900 28012G18KT P6SM FEW022 SCT100 BKN140
     FM270100 24005KT P6SM SKC
     FM271500 24014G24KT P6SM SKC=

USA.gov is the U.S. government's official web portal to all federal, state and local government web resources and services.